sensor_id;sensor_type;location;lat;lon;timestamp;pressure;altitude;pressure_sealevel;temperature;humidity
52927;BME280;40783;49.710;8.842;2022-11-20T00:02:22;98592.94;;;5.86;100.00
52927;BME280;40783;49.710;8.842;2022-11-20T00:04:47;98591.53;;;5.91;100.00
52927;BME280;40783;49.710;8.842;2022-11-20T00:07:13;98596.28;;;5.98;100.00
52927;BME280;40783;49.710;8.842;2022-11-20T00:09:38;98587.06;;;5.92;100.00
52927;BME280;40783;49.710;8.842;2022-11-20T00:12:03;98590.69;;;5.91;100.00
52927;BME280;40783;49.710;8.842;2022-11-20T00:14:28;98587.94;;;5.83;100.00
52927;BME280;40783;49.710;8.842;2022-11-20T00:16:53;98585.16;;;5.74;100.00
52927;BME280;40783;49.710;8.842;2022-11-20T00:19:21;98588.72;;;5.93;100.00
52927;BME280;40783;49.710;8.842;2022-11-20T00:21:46;98579.78;;;5.94;100.00
52927;BME280;40783;49.710;8.842;2022-11-20T00:24:11;98582.59;;;5.92;100.00
52927;BME280;40783;49.710;8.842;2022-11-20T00:26:37;98576.16;;;5.95;100.00
52927;BME280;40783;49.710;8.842;2022-11-20T00:29:04;98583.13;;;5.96;100.00
52927;BME280;40783;49.710;8.842;2022-11-20T00:31:30;98578.13;;;5.93;100.00
52927;BME280;40783;49.710;8.842;2022-11-20T00:33:58;98582.03;;;5.89;100.00
52927;BME280;40783;49.710;8.842;2022-11-20T00:36:24;98573.66;;;5.93;100.00
52927;BME280;40783;49.710;8.842;2022-11-20T00:38:53;98570.56;;;5.98;100.00
52927;BME280;40783;49.710;8.842;2022-11-20T00:41:19;98570.84;;;5.95;100.00
52927;BME280;40783;49.710;8.842;2022-11-20T00:43:44;98576.84;;;6.17;100.00
52927;BME280;40783;49.710;8.842;2022-11-20T00:48:34;98576.69;;;6.28;100.00
52927;BME280;40783;49.710;8.842;2022-11-20T00:51:00;98576.69;;;6.28;100.00
52927;BME280;40783;49.710;8.842;2022-11-20T00:53:25;98571.38;;;6.28;100.00
52927;BME280;40783;49.710;8.842;2022-11-20T00:58:23;98579.06;;;6.21;100.00
52927;BME280;40783;49.710;8.842;2022-11-20T01:00:48;98583.25;;;6.14;100.00
52927;BME280;40783;49.710;8.842;2022-11-20T01:03:16;98577.94;;;6.14;100.00
52927;BME280;40783;49.710;8.842;2022-11-20T01:05:42;98565.00;;;6.01;100.00
52927;BME280;40783;49.710;8.842;2022-11-20T01:08:09;98572.41;;;6.07;100.00
52927;BME280;40783;49.710;8.842;2022-11-20T01:10:38;98571.13;;;6.12;100.00
52927;BME280;40783;49.710;8.842;2022-11-20T01:13:03;98574.72;;;6.20;100.00
52927;BME280;40783;49.710;8.842;2022-11-20T01:15:47;98569.41;;;6.30;100.00
52927;BME280;40783;49.710;8.842;2022-11-20T01:18:12;98569.13;;;6.33;100.00
52927;BME280;40783;49.710;8.842;2022-11-20T01:20:37;98563.25;;;6.30;100.00
52927;BME280;40783;49.710;8.842;2022-11-20T01:23:02;98569.69;;;6.27;100.00
52927;BME280;40783;49.710;8.842;2022-11-20T01:25:28;98566.06;;;6.18;100.00
52927;BME280;40783;49.710;8.842;2022-11-20T01:27:53;98565.78;;;6.21;100.00
52927;BME280;40783;49.710;8.842;2022-11-20T01:30:20;98571.78;;;6.23;100.00
52927;BME280;40783;49.710;8.842;2022-11-20T01:32:48;98557.84;;;6.12;100.00
52927;BME280;40783;49.710;8.842;2022-11-20T01:35:13;98561.09;;;6.05;100.00
52927;BME280;40783;49.710;8.842;2022-11-20T01:37:41;98559.69;;;6.01;100.00
52927;BME280;40783;49.710;8.842;2022-11-20T01:40:06;98567.00;;;5.79;100.00
52927;BME280;40783;49.710;8.842;2022-11-20T01:42:34;98557.72;;;5.84;100.00
52927;BME280;40783;49.710;8.842;2022-11-20T01:48:02;98551.44;;;5.85;100.00
52927;BME280;40783;49.710;8.842;2022-11-20T01:50:28;98555.09;;;5.84;100.00
52927;BME280;40783;49.710;8.842;2022-11-20T01:52:58;98555.50;;;5.89;100.00
52927;BME280;40783;49.710;8.842;2022-11-20T01:55:29;98558.56;;;5.94;100.00
52927;BME280;40783;49.710;8.842;2022-11-20T01:57:55;98546.28;;;5.93;100.00
52927;BME280;40783;49.710;8.842;2022-11-20T02:00:21;98546.56;;;5.90;100.00
52927;BME280;40783;49.710;8.842;2022-11-20T02:02:51;98540.97;;;5.93;100.00
52927;BME280;40783;49.710;8.842;2022-11-20T02:05:36;98534.25;;;5.99;100.00
52927;BME280;40783;49.710;8.842;2022-11-20T02:08:04;98545.97;;;5.96;100.00
52927;BME280;40783;49.710;8.842;2022-11-20T02:10:29;98543.50;;;5.94;100.00
52927;BME280;40783;49.710;8.842;2022-11-20T02:12:57;98544.31;;;5.95;100.00
52927;BME280;40783;49.710;8.842;2022-11-20T02:15:41;98534.56;;;5.86;100.00
52927;BME280;40783;49.710;8.842;2022-11-20T02:18:10;98533.72;;;5.85;100.00
52927;BME280;40783;49.710;8.842;2022-11-20T02:20:36;98520.09;;;5.70;100.00
52927;BME280;40783;49.710;8.842;2022-11-20T02:25:29;98537.69;;;5.71;100.00
52927;BME280;40783;49.710;8.842;2022-11-20T02:27:55;98533.66;;;6.98;100.00
52927;BME280;40783;49.710;8.842;2022-11-20T02:30:20;98539.31;;;6.67;100.00
52927;BME280;40783;49.710;8.842;2022-11-20T02:32:45;98531.00;;;6.52;100.00
52927;BME280;40783;49.710;8.842;2022-11-20T02:37:44;98524.66;;;6.35;100.00
52927;BME280;40783;49.710;8.842;2022-11-20T02:40:12;98521.59;;;6.30;100.00
52927;BME280;40783;49.710;8.842;2022-11-20T02:42:37;98525.53;;;6.26;100.00
52927;BME280;40783;49.710;8.842;2022-11-20T02:45:05;98525.81;;;6.23;100.00
52927;BME280;40783;49.710;8.842;2022-11-20T02:47:30;98518.16;;;6.20;100.00
52927;BME280;40783;49.710;8.842;2022-11-20T02:49:56;98520.22;;;6.26;100.00
52927;BME280;40783;49.710;8.842;2022-11-20T02:52:21;98511.59;;;6.14;100.00
52927;BME280;40783;49.710;8.842;2022-11-20T02:54:49;98504.88;;;6.20;100.00
52927;BME280;40783;49.710;8.842;2022-11-20T02:57:14;98512.69;;;6.21;100.00
52927;BME280;40783;49.710;8.842;2022-11-20T02:59:42;98500.38;;;6.20;100.00
52927;BME280;40783;49.710;8.842;2022-11-20T03:02:09;98502.63;;;6.25;100.00
52927;BME280;40783;49.710;8.842;2022-11-20T03:04:35;98505.22;;;6.07;100.00
52927;BME280;40783;49.710;8.842;2022-11-20T03:07:00;98512.03;;;6.09;100.00
52927;BME280;40783;49.710;8.842;2022-11-20T03:09:25;98509.97;;;6.03;100.00
52927;BME280;40783;49.710;8.842;2022-11-20T03:11:50;98519.47;;;6.06;100.00
52927;BME280;40783;49.710;8.842;2022-11-20T03:14:16;98514.97;;;6.06;100.00
52927;BME280;40783;49.710;8.842;2022-11-20T03:16:41;98505.50;;;6.04;100.00
52927;BME280;40783;49.710;8.842;2022-11-20T03:19:09;98511.63;;;6.04;100.00
52927;BME280;40783;49.710;8.842;2022-11-20T03:21:36;98509.25;;;6.01;100.00
52927;BME280;40783;49.710;8.842;2022-11-20T03:24:02;98517.22;;;6.01;100.00
52927;BME280;40783;49.710;8.842;2022-11-20T03:26:30;98514.16;;;6.06;100.00
52927;BME280;40783;49.710;8.842;2022-11-20T03:28:57;98518.91;;;6.02;100.00
52927;BME280;40783;49.710;8.842;2022-11-20T03:31:26;98511.09;;;6.01;100.00
52927;BME280;40783;49.710;8.842;2022-11-20T03:33:52;98515.56;;;6.00;100.00
52927;BME280;40783;49.710;8.842;2022-11-20T03:36:18;98515.50;;;6.10;100.00
52927;BME280;40783;49.710;8.842;2022-11-20T03:38:44;98515.22;;;6.13;100.00
52927;BME280;40783;49.710;8.842;2022-11-20T03:41:10;98514.69;;;6.09;100.00
52927;BME280;40783;49.710;8.842;2022-11-20T03:43:36;98524.50;;;6.09;100.00
52927;BME280;40783;49.710;8.842;2022-11-20T03:46:02;98526.97;;;6.11;100.00
52927;BME280;40783;49.710;8.842;2022-11-20T03:48:27;98535.94;;;6.09;100.00
52927;BME280;40783;49.710;8.842;2022-11-20T03:51:11;98522.78;;;6.18;100.00
52927;BME280;40783;49.710;8.842;2022-11-20T03:53:36;98526.13;;;6.20;100.00
52927;BME280;40783;49.710;8.842;2022-11-20T03:56:04;98519.41;;;6.16;100.00
52927;BME280;40783;49.710;8.842;2022-11-20T03:58:29;98521.09;;;6.17;100.00
52927;BME280;40783;49.710;8.842;2022-11-20T04:00:55;98518.84;;;6.22;100.00
52927;BME280;40783;49.710;8.842;2022-11-20T04:03:20;98523.88;;;6.25;100.00
52927;BME280;40783;49.710;8.842;2022-11-20T04:05:45;98515.22;;;6.23;100.00
52927;BME280;40783;49.710;8.842;2022-11-20T04:08:10;98517.75;;;6.15;100.00
52927;BME280;40783;49.710;8.842;2022-11-20T04:10:38;98516.88;;;6.24;100.00
52927;BME280;40783;49.710;8.842;2022-11-20T04:13:05;98526.13;;;6.20;100.00
52927;BME280;40783;49.710;8.842;2022-11-20T04:15:32;98519.13;;;6.19;100.00
52927;BME280;40783;49.710;8.842;2022-11-20T04:18:00;98529.16;;;5.77;100.00
52927;BME280;40783;49.710;8.842;2022-11-20T04:20:25;98523.72;;;5.69;100.00
52927;BME280;40783;49.710;8.842;2022-11-20T04:22:53;98521.59;;;5.83;100.00
52927;BME280;40783;49.710;8.842;2022-11-20T04:25:19;98515.59;;;5.81;100.00
52927;BME280;40783;49.710;8.842;2022-11-20T04:27:46;98515.84;;;5.87;100.00
52927;BME280;40783;49.710;8.842;2022-11-20T04:30:12;98521.69;;;5.91;100.00
52927;BME280;40783;49.710;8.842;2022-11-20T04:32:39;98509.97;;;5.93;100.00
52927;BME280;40783;49.710;8.842;2022-11-20T04:35:04;98510.81;;;6.04;100.00
52927;BME280;40783;49.710;8.842;2022-11-20T04:37:30;98503.78;;;6.13;100.00
52927;BME280;40783;49.710;8.842;2022-11-20T04:39:55;98500.44;;;6.11;100.00
52927;BME280;40783;49.710;8.842;2022-11-20T04:42:20;98501.88;;;6.05;100.00
52927;BME280;40783;49.710;8.842;2022-11-20T04:44:54;98502.41;;;5.99;100.00
52927;BME280;40783;49.710;8.842;2022-11-20T04:47:20;98489.69;;;6.02;100.00
52927;BME280;40783;49.710;8.842;2022-11-20T04:49:47;98502.09;;;6.12;100.00
52927;BME280;40783;49.710;8.842;2022-11-20T04:52:13;98500.69;;;6.17;100.00
52927;BME280;40783;49.710;8.842;2022-11-20T04:54:38;98493.56;;;6.18;100.00
52927;BME280;40783;49.710;8.842;2022-11-20T04:57:05;98496.78;;;6.12;100.00
52927;BME280;40783;49.710;8.842;2022-11-20T04:59:31;98494.84;;;6.14;100.00
52927;BME280;40783;49.710;8.842;2022-11-20T05:01:56;98492.31;;;6.12;100.00
52927;BME280;40783;49.710;8.842;2022-11-20T05:04:21;98495.13;;;6.11;100.00
52927;BME280;40783;49.710;8.842;2022-11-20T05:06:46;98489.84;;;5.91;100.00
52927;BME280;40783;49.710;8.842;2022-11-20T05:09:12;98487.31;;;5.99;100.00
52927;BME280;40783;49.710;8.842;2022-11-20T05:11:37;98489.69;;;6.02;100.00
52927;BME280;40783;49.710;8.842;2022-11-20T05:14:05;98483.53;;;6.12;100.00
52927;BME280;40783;49.710;8.842;2022-11-20T05:16:30;98495.53;;;6.16;100.00
52927;BME280;40783;49.710;8.842;2022-11-20T05:18:55;98482.94;;;6.18;100.00
52927;BME280;40783;49.710;8.842;2022-11-20T05:21:22;98480.28;;;6.18;100.00
52927;BME280;40783;49.710;8.842;2022-11-20T05:23:48;98482.25;;;6.16;100.00
52927;BME280;40783;49.710;8.842;2022-11-20T05:26:14;98481.97;;;6.19;100.00
52927;BME280;40783;49.710;8.842;2022-11-20T05:28:40;98479.69;;;6.24;100.00
52927;BME280;40783;49.710;8.842;2022-11-20T05:31:09;98483.63;;;6.20;100.00
52927;BME280;40783;49.710;8.842;2022-11-20T05:33:34;98475.16;;;6.06;100.00
52927;BME280;40783;49.710;8.842;2022-11-20T05:36:03;98480.03;;;6.11;100.00
52927;BME280;40783;49.710;8.842;2022-11-20T05:38:28;98478.06;;;6.13;100.00
52927;BME280;40783;49.710;8.842;2022-11-20T05:40:54;98481.28;;;6.17;100.00
52927;BME280;40783;49.710;8.842;2022-11-20T05:43:19;98480.28;;;6.18;100.00
52927;BME280;40783;49.710;8.842;2022-11-20T05:45:51;98480.56;;;6.15;100.00
52927;BME280;40783;49.710;8.842;2022-11-20T05:48:16;98475.28;;;6.15;100.00
52927;BME280;40783;49.710;8.842;2022-11-20T05:50:41;98468.97;;;6.16;100.00
52927;BME280;40783;49.710;8.842;2022-11-20T05:53:07;98471.69;;;6.06;100.00
52927;BME280;40783;49.710;8.842;2022-11-20T05:55:32;98467.72;;;6.20;100.00
52927;BME280;40783;49.710;8.842;2022-11-20T05:57:57;98463.97;;;6.13;100.00
52927;BME280;40783;49.710;8.842;2022-11-20T06:00:22;98474.28;;;6.16;100.00
52927;BME280;40783;49.710;8.842;2022-11-20T06:02:47;98473.00;;;6.20;100.00
52927;BME280;40783;49.710;8.842;2022-11-20T06:05:15;98477.63;;;6.18;100.00
52927;BME280;40783;49.710;8.842;2022-11-20T06:07:42;98480.81;;;6.21;100.00
52927;BME280;40783;49.710;8.842;2022-11-20T06:10:09;98473.00;;;6.20;100.00
52927;BME280;40783;49.710;8.842;2022-11-20T06:12:35;98480.06;;;6.01;100.00
52927;BME280;40783;49.710;8.842;2022-11-20T06:15:00;98477.94;;;6.15;100.00
52927;BME280;40783;49.710;8.842;2022-11-20T06:17:25;98475.56;;;6.12;100.00
52927;BME280;40783;49.710;8.842;2022-11-20T06:19:51;98470.50;;;6.18;100.00
52927;BME280;40783;49.710;8.842;2022-11-20T06:22:18;98470.94;;;6.14;100.00
52927;BME280;40783;49.710;8.842;2022-11-20T06:24:43;98473.31;;;6.17;100.00
52927;BME280;40783;49.710;8.842;2022-11-20T06:27:08;98464.66;;;6.15;100.00
52927;BME280;40783;49.710;8.842;2022-11-20T06:29:36;98476.66;;;6.19;100.00
52927;BME280;40783;49.710;8.842;2022-11-20T06:32:04;98471.06;;;6.22;100.00
52927;BME280;40783;49.710;8.842;2022-11-20T06:34:29;98471.06;;;6.22;100.00
52927;BME280;40783;49.710;8.842;2022-11-20T06:36:54;98480.53;;;6.24;100.00
52927;BME280;40783;49.710;8.842;2022-11-20T06:39:19;98465.94;;;6.11;100.00
52927;BME280;40783;49.710;8.842;2022-11-20T06:41:45;98477.22;;;6.13;100.00
52927;BME280;40783;49.710;8.842;2022-11-20T06:44:10;98471.38;;;5.99;100.00
52927;BME280;40783;49.710;8.842;2022-11-20T06:46:37;98477.38;;;6.11;100.00
52927;BME280;40783;49.710;8.842;2022-11-20T06:49:05;98483.38;;;6.13;100.00
52927;BME280;40783;49.710;8.842;2022-11-20T06:51:33;98480.88;;;6.12;100.00
52927;BME280;40783;49.710;8.842;2022-11-20T06:53:58;98480.88;;;6.12;100.00
52927;BME280;40783;49.710;8.842;2022-11-20T06:56:23;98476.94;;;6.16;100.00
52927;BME280;40783;49.710;8.842;2022-11-20T06:58:48;98474.69;;;6.21;100.00
52927;BME280;40783;49.710;8.842;2022-11-20T07:01:16;98487.47;;;5.88;100.00
52927;BME280;40783;49.710;8.842;2022-11-20T07:03:42;98479.34;;;5.99;100.00
52927;BME280;40783;49.710;8.842;2022-11-20T07:06:08;98465.81;;;6.02;100.00
52927;BME280;40783;49.710;8.842;2022-11-20T07:08:35;98472.44;;;6.16;100.00
52927;BME280;40783;49.710;8.842;2022-11-20T07:11:02;98479.50;;;6.07;100.00
52927;BME280;40783;49.710;8.842;2022-11-20T07:13:27;98481.31;;;6.07;100.00
52927;BME280;40783;49.710;8.842;2022-11-20T07:15:59;98483.94;;;6.17;100.00
52927;BME280;40783;49.710;8.842;2022-11-20T07:18:25;98485.31;;;6.21;100.00
52927;BME280;40783;49.710;8.842;2022-11-20T07:20:50;98493.97;;;6.23;100.00
52927;BME280;40783;49.710;8.842;2022-11-20T07:23:15;98492.69;;;6.27;100.00
52927;BME280;40783;49.710;8.842;2022-11-20T07:25:43;98495.81;;;6.41;100.00
52927;BME280;40783;49.710;8.842;2022-11-20T07:28:08;98488.75;;;6.31;100.00
52927;BME280;40783;49.710;8.842;2022-11-20T07:30:36;98481.38;;;6.25;100.00
52927;BME280;40783;49.710;8.842;2022-11-20T07:33:03;98488.34;;;6.26;100.00
52927;BME280;40783;49.710;8.842;2022-11-20T07:35:29;98485.81;;;6.34;100.00
52927;BME280;40783;49.710;8.842;2022-11-20T07:37:56;98484.97;;;6.34;100.00
52927;BME280;40783;49.710;8.842;2022-11-20T07:40:21;98488.84;;;6.39;100.00
52927;BME280;40783;49.710;8.842;2022-11-20T07:42:47;98482.75;;;6.29;100.00
52927;BME280;40783;49.710;8.842;2022-11-20T07:45:15;98489.34;;;6.25;100.00
52927;BME280;40783;49.710;8.842;2022-11-20T07:47:42;98489.22;;;6.17;100.00
52927;BME280;40783;49.710;8.842;2022-11-20T07:50:08;98483.94;;;6.17;100.00
52927;BME280;40783;49.710;8.842;2022-11-20T07:52:33;98481.41;;;6.15;100.00
52927;BME280;40783;49.710;8.842;2022-11-20T07:54:58;98488.94;;;6.20;100.00
52927;BME280;40783;49.710;8.842;2022-11-20T07:57:23;98496.44;;;6.34;100.00
52927;BME280;40783;49.710;8.842;2022-11-20T07:59:51;98485.88;;;6.15;100.00
52927;BME280;40783;49.710;8.842;2022-11-20T08:02:18;98491.78;;;5.99;100.00
52927;BME280;40783;49.710;8.842;2022-11-20T08:04:43;98499.34;;;6.03;100.00
52927;BME280;40783;49.710;8.842;2022-11-20T08:07:09;98496.63;;;6.13;100.00
52927;BME280;40783;49.710;8.842;2022-11-20T08:09:36;98511.00;;;6.20;100.00
52927;BME280;40783;49.710;8.842;2022-11-20T08:12:04;98512.00;;;5.42;100.00
52927;BME280;40783;49.710;8.842;2022-11-20T08:14:50;98519.81;;;4.95;100.00
52927;BME280;40783;49.710;8.842;2022-11-20T08:17:18;98520.28;;;4.39;100.00
52927;BME280;40783;49.710;8.842;2022-11-20T08:19:45;98520.66;;;4.85;100.00
52927;BME280;40783;49.710;8.842;2022-11-20T08:22:10;98523.34;;;5.25;100.00
52927;BME280;40783;49.710;8.842;2022-11-20T08:24:38;98519.00;;;5.33;100.00
52927;BME280;40783;49.710;8.842;2022-11-20T08:27:03;98519.53;;;5.57;100.00
52927;BME280;40783;49.710;8.842;2022-11-20T08:29:28;98521.19;;;5.77;100.00
52927;BME280;40783;49.710;8.842;2022-11-20T08:31:59;98538.72;;;5.98;100.00
52927;BME280;40783;49.710;8.842;2022-11-20T08:34:24;98550.53;;;5.37;100.00
52927;BME280;40783;49.710;8.842;2022-11-20T08:36:52;98556.09;;;5.04;100.00
52927;BME280;40783;49.710;8.842;2022-11-20T08:39:17;98547.19;;;5.44;100.00
52927;BME280;40783;49.710;8.842;2022-11-20T08:41:42;98552.75;;;5.61;100.00
52927;BME280;40783;49.710;8.842;2022-11-20T08:44:07;98555.69;;;5.77;100.00
52927;BME280;40783;49.710;8.842;2022-11-20T08:48:58;98557.16;;;5.90;100.00
52927;BME280;40783;49.710;8.842;2022-11-20T08:51:26;98557.28;;;5.98;100.00
52927;BME280;40783;49.710;8.842;2022-11-20T08:53:54;98566.69;;;6.02;100.00
52927;BME280;40783;49.710;8.842;2022-11-20T08:56:19;98569.16;;;6.14;100.00
52927;BME280;40783;49.710;8.842;2022-11-20T08:58:44;98562.19;;;6.13;100.00
52927;BME280;40783;49.710;8.842;2022-11-20T09:01:10;98567.91;;;6.18;100.00
52927;BME280;40783;49.710;8.842;2022-11-20T09:03:38;98568.03;;;6.26;100.00
52927;BME280;40783;49.710;8.842;2022-11-20T09:06:04;98558.84;;;6.11;100.00
52927;BME280;40783;49.710;8.842;2022-11-20T09:08:30;98565.00;;;6.01;100.00
52927;BME280;40783;49.710;8.842;2022-11-20T09:10:58;98570.31;;;6.01;100.00
52927;BME280;40783;49.710;8.842;2022-11-20T09:13:24;98567.38;;;6.04;100.00
52927;BME280;40783;49.710;8.842;2022-11-20T09:15:56;98568.34;;;6.03;100.00
52927;BME280;40783;49.710;8.842;2022-11-20T09:18:22;98563.59;;;6.07;100.00
52927;BME280;40783;49.710;8.842;2022-11-20T09:20:47;98559.34;;;6.24;100.00
52927;BME280;40783;49.710;8.842;2022-11-20T09:23:12;98557.75;;;5.74;100.00
52927;BME280;40783;49.710;8.842;2022-11-20T09:25:37;98575.19;;;5.96;100.00
52927;BME280;40783;49.710;8.842;2022-11-20T09:28:05;98569.16;;;6.14;100.00
52927;BME280;40783;49.710;8.842;2022-11-20T09:30:30;98564.56;;;6.16;100.00
52927;BME280;40783;49.710;8.842;2022-11-20T09:32:56;98564.38;;;6.27;100.00
52927;BME280;40783;49.710;8.842;2022-11-20T09:35:24;98569.41;;;6.30;100.00
52927;BME280;40783;49.710;8.842;2022-11-20T09:37:51;98571.06;;;6.31;100.00
52927;BME280;40783;49.710;8.842;2022-11-20T09:40:20;98567.44;;;6.32;100.00
52927;BME280;40783;49.710;8.842;2022-11-20T09:45:24;98571.28;;;6.48;100.00
52927;BME280;40783;49.710;8.842;2022-11-20T09:55:30;98581.22;;;6.46;100.00
52927;BME280;40783;49.710;8.842;2022-11-20T09:57:56;98563.19;;;6.39;100.00
52927;BME280;40783;49.710;8.842;2022-11-20T10:00:22;98563.81;;;6.33;100.00
52927;BME280;40783;49.710;8.842;2022-11-20T10:33:57;98535.91;;;6.93;100.00
52927;BME280;40783;49.710;8.842;2022-11-20T10:36:33;98535.22;;;6.91;100.00
52927;BME280;40783;49.710;8.842;2022-11-20T10:39:03;98540.88;;;6.88;100.00
52927;BME280;40783;49.710;8.842;2022-11-20T10:41:32;98530.69;;;7.02;100.00
52927;BME280;40783;49.710;8.842;2022-11-20T10:46:26;98537.75;;;6.93;100.00
52927;BME280;40783;49.710;8.842;2022-11-20T10:48:57;98529.31;;;6.97;100.00
52927;BME280;40783;49.710;8.842;2022-11-20T11:01:39;98520.06;;;7.02;100.00
52927;BME280;40783;49.710;8.842;2022-11-20T11:04:06;98521.44;;;7.06;100.00
52927;BME280;40783;49.710;8.842;2022-11-20T11:06:46;98514.13;;;7.08;100.00
52927;BME280;40783;49.710;8.842;2022-11-20T11:09:24;98511.34;;;7.09;100.00
52927;BME280;40783;49.710;8.842;2022-11-20T11:11:51;98510.50;;;7.09;100.00
52927;BME280;40783;49.710;8.842;2022-11-20T11:14:19;98516.13;;;7.06;100.00
52927;BME280;40783;49.710;8.842;2022-11-20T11:16:51;98505.47;;;7.06;100.00
52927;BME280;40783;49.710;8.842;2022-11-20T11:19:16;98516.41;;;7.03;100.00
52927;BME280;40783;49.710;8.842;2022-11-20T11:21:49;98520.06;;;7.02;100.00
52927;BME280;40783;49.710;8.842;2022-11-20T11:24:28;98507.75;;;7.01;100.00
52927;BME280;40783;49.710;8.842;2022-11-20T11:27:00;98494.72;;;7.07;100.00
52927;BME280;40783;49.710;8.842;2022-11-20T11:29:32;98495.59;;;7.16;100.00
52927;BME280;40783;49.710;8.842;2022-11-20T11:32:04;98486.66;;;7.17;100.00
52927;BME280;40783;49.710;8.842;2022-11-20T11:34:30;98491.66;;;7.20;100.00
52927;BME280;40783;49.710;8.842;2022-11-20T11:36:57;98490.00;;;7.19;100.00
52927;BME280;40783;49.710;8.842;2022-11-20T11:39:23;98489.69;;;7.22;100.00
52927;BME280;40783;49.710;8.842;2022-11-20T11:41:49;98489.31;;;7.17;100.00
52927;BME280;40783;49.710;8.842;2022-11-20T11:47:00;98488.16;;;7.38;100.00
52927;BME280;40783;49.710;8.842;2022-11-20T11:49:27;98489.69;;;7.22;100.00
52927;BME280;40783;49.710;8.842;2022-11-20T11:51:57;98493.53;;;7.28;100.00
52927;BME280;40783;49.710;8.842;2022-11-20T11:54:26;98488.47;;;7.35;100.00
52927;BME280;40783;49.710;8.842;2022-11-20T11:56:53;98482.56;;;7.49;100.00
52927;BME280;40783;49.710;8.842;2022-11-20T11:59:22;98480.34;;;7.63;100.00
52927;BME280;40783;49.710;8.842;2022-11-20T12:01:53;98481.38;;;7.70;100.00
52927;BME280;40783;49.710;8.842;2022-11-20T12:07:11;98477.22;;;7.41;100.00
52927;BME280;40783;49.710;8.842;2022-11-20T12:09:41;98472.41;;;7.45;100.00
52927;BME280;40783;49.710;8.842;2022-11-20T12:12:09;98463.91;;;7.41;100.00
52927;BME280;40783;49.710;8.842;2022-11-20T12:17:01;98469.16;;;7.33;100.00
52927;BME280;40783;49.710;8.842;2022-11-20T12:19:26;98456.56;;;7.43;100.00
52927;BME280;40783;49.710;8.842;2022-11-20T12:42:54;98461.66;;;7.54;100.00
52927;BME280;40783;49.710;8.842;2022-11-20T12:51:17;98464.16;;;7.30;100.00
52927;BME280;40783;49.710;8.842;2022-11-20T13:01:58;98464.03;;;7.39;100.00
52927;BME280;40783;49.710;8.842;2022-11-20T13:04:21;98458.91;;;7.38;100.00
52927;BME280;40783;49.710;8.842;2022-11-20T13:06:49;98449.88;;;7.31;100.00
52927;BME280;40783;49.710;8.842;2022-11-20T13:09:18;98445.47;;;7.21;100.00
52927;BME280;40783;49.710;8.842;2022-11-20T13:11:48;98442.88;;;7.30;100.00
52927;BME280;40783;49.710;8.842;2022-11-20T13:14:19;98435.78;;;7.38;100.00
52927;BME280;40783;49.710;8.842;2022-11-20T13:19:19;98425.41;;;7.53;100.00
52927;BME280;40783;49.710;8.842;2022-11-20T13:21:47;98428.16;;;7.43;100.00
52927;BME280;40783;49.710;8.842;2022-11-20T13:26:48;98419.69;;;7.48;100.00
52927;BME280;40783;49.710;8.842;2022-11-20T13:29:18;98419.69;;;7.48;100.00
52927;BME280;40783;49.710;8.842;2022-11-20T13:31:47;98412.41;;;7.50;100.00
52927;BME280;40783;49.710;8.842;2022-11-20T13:34:26;98409.38;;;7.45;100.00
52927;BME280;40783;49.710;8.842;2022-11-20T13:36:53;98408.56;;;7.45;100.00
52927;BME280;40783;49.710;8.842;2022-11-20T13:39:28;98406.41;;;7.48;100.00
52927;BME280;40783;49.710;8.842;2022-11-20T13:42:01;98399.78;;;7.52;100.00
52927;BME280;40783;49.710;8.842;2022-11-20T13:44:29;98394.81;;;7.57;100.00
52927;BME280;40783;49.710;8.842;2022-11-20T13:46:55;98399.16;;;7.58;100.00
52927;BME280;40783;49.710;8.842;2022-11-20T13:49:23;98388.19;;;7.62;100.00
52927;BME280;40783;49.710;8.842;2022-11-20T13:51:54;98390.50;;;7.56;100.00
52927;BME280;40783;49.710;8.842;2022-11-20T13:57:13;98392.28;;;7.48;100.00
52927;BME280;40783;49.710;8.842;2022-11-20T14:02:15;98396.75;;;7.47;100.00
52927;BME280;40783;49.710;8.842;2022-11-20T14:04:48;98387.16;;;7.54;100.00
52927;BME280;40783;49.710;8.842;2022-11-20T14:07:14;98387.16;;;7.54;100.00
52927;BME280;40783;49.710;8.842;2022-11-20T14:09:48;98390.19;;;7.60;100.00
52927;BME280;40783;49.710;8.842;2022-11-20T14:12:18;98384.53;;;7.63;100.00
52927;BME280;40783;49.710;8.842;2022-11-20T14:14:53;98386.75;;;7.67;100.00
52927;BME280;40783;49.710;8.842;2022-11-20T14:19:45;98382.88;;;7.62;100.00
52927;BME280;40783;49.710;8.842;2022-11-20T14:24:45;98377.91;;;7.67;100.00
52927;BME280;40783;49.710;8.842;2022-11-20T14:27:17;98370.59;;;7.69;100.00
52927;BME280;40783;49.710;8.842;2022-11-20T14:29:43;98374.56;;;7.65;100.00
52927;BME280;40783;49.710;8.842;2022-11-20T14:32:11;98367.09;;;7.68;100.00
52927;BME280;40783;49.710;8.842;2022-11-20T14:34:41;98367.53;;;7.55;100.00
52927;BME280;40783;49.710;8.842;2022-11-20T14:37:12;98360.94;;;7.68;100.00
52927;BME280;40783;49.710;8.842;2022-11-20T14:39:41;98350.78;;;7.63;100.00
52927;BME280;40783;49.710;8.842;2022-11-20T14:42:16;98357.22;;;7.52;100.00
52927;BME280;40783;49.710;8.842;2022-11-20T14:44:42;98352.38;;;7.48;100.00
52927;BME280;40783;49.710;8.842;2022-11-20T14:47:10;98351.69;;;7.46;100.00
52927;BME280;40783;49.710;8.842;2022-11-20T14:49:37;98344.22;;;7.41;100.00
52927;BME280;40783;49.710;8.842;2022-11-20T14:52:10;98348.84;;;7.39;100.00
52927;BME280;40783;49.710;8.842;2022-11-20T14:54:43;98354.84;;;7.41;100.00
52927;BME280;40783;49.710;8.842;2022-11-20T14:57:20;98344.53;;;7.38;100.00
52927;BME280;40783;49.710;8.842;2022-11-20T14:59:46;98342.41;;;7.50;100.00
52927;BME280;40783;49.710;8.842;2022-11-20T15:02:11;98334.50;;;7.32;100.00
52927;BME280;40783;49.710;8.842;2022-11-20T15:04:50;98337.84;;;7.34;100.00
52927;BME280;40783;49.710;8.842;2022-11-20T15:10:03;98331.53;;;7.35;100.00
52927;BME280;40783;49.710;8.842;2022-11-20T15:12:30;98330.13;;;7.22;100.00